sensor_id;sensor_type;location;lat;lon;timestamp;noise_LAeq;noise_LA_min;noise_LA_max;noise_LA01;noise_LA95
60031;Laerm;45901;47.600;9.890;2022-07-29T00:01:36;40.66;35.94;44.65;;
60031;Laerm;45901;47.600;9.890;2022-07-29T00:04:04;40.34;36.20;53.29;;
60031;Laerm;45901;47.600;9.890;2022-07-29T00:06:31;40.32;35.94;43.63;;
60031;Laerm;45901;47.600;9.890;2022-07-29T00:08:58;41.37;36.20;45.75;;
60031;Laerm;45901;47.600;9.890;2022-07-29T00:11:25;41.73;36.91;44.83;;
60031;Laerm;45901;47.600;9.890;2022-07-29T00:13:52;41.31;36.45;60.65;;
60031;Laerm;45901;47.600;9.890;2022-07-29T00:16:19;40.56;36.20;43.49;;
60031;Laerm;45901;47.600;9.890;2022-07-29T00:18:48;40.41;35.36;42.88;;
60031;Laerm;45901;47.600;9.890;2022-07-29T00:21:15;41.95;36.20;46.38;;
60031;Laerm;45901;47.600;9.890;2022-07-29T00:23:42;40.46;32.35;47.46;;
60031;Laerm;45901;47.600;9.890;2022-07-29T00:26:09;40.58;36.69;43.04;;
60031;Laerm;45901;47.600;9.890;2022-07-29T00:28:37;40.54;36.45;42.98;;
60031;Laerm;45901;47.600;9.890;2022-07-29T00:31:04;42.32;36.69;61.74;;
60031;Laerm;45901;47.600;9.890;2022-07-29T00:33:33;40.65;35.36;43.68;;
60031;Laerm;45901;47.600;9.890;2022-07-29T00:36:02;40.51;36.45;43.09;;
60031;Laerm;45901;47.600;9.890;2022-07-29T00:38:28;40.50;35.36;42.82;;
60031;Laerm;45901;47.600;9.890;2022-07-29T00:40:55;40.40;35.66;42.76;;
60031;Laerm;45901;47.600;9.890;2022-07-29T00:43:22;40.60;34.69;47.02;;
60031;Laerm;45901;47.600;9.890;2022-07-29T00:45:49;43.89;36.45;61.95;;
60031;Laerm;45901;47.600;9.890;2022-07-29T00:48:17;40.56;35.94;43.09;;
60031;Laerm;45901;47.600;9.890;2022-07-29T00:50:44;40.44;36.45;42.82;;
60031;Laerm;45901;47.600;9.890;2022-07-29T00:53:13;40.55;36.45;43.39;;
60031;Laerm;45901;47.600;9.890;2022-07-29T00:55:40;40.55;33.90;43.99;;
60031;Laerm;45901;47.600;9.890;2022-07-29T00:58:07;40.64;36.20;45.69;;
60031;Laerm;45901;47.600;9.890;2022-07-29T01:00:35;46.94;37.12;63.61;;
60031;Laerm;45901;47.600;9.890;2022-07-29T01:03:02;40.82;36.45;44.03;;
60031;Laerm;45901;47.600;9.890;2022-07-29T01:05:30;40.80;35.04;43.34;;
60031;Laerm;45901;47.600;9.890;2022-07-29T01:07:58;40.61;37.12;42.93;;
60031;Laerm;45901;47.600;9.890;2022-07-29T01:10:27;40.59;36.20;43.04;;
60031;Laerm;45901;47.600;9.890;2022-07-29T01:12:58;40.67;36.45;42.88;;
60031;Laerm;45901;47.600;9.890;2022-07-29T01:15:26;43.34;37.70;63.71;;
60031;Laerm;45901;47.600;9.890;2022-07-29T01:18:02;41.27;36.45;48.46;;
60031;Laerm;45901;47.600;9.890;2022-07-29T01:20:45;40.56;36.69;42.76;;
60031;Laerm;45901;47.600;9.890;2022-07-29T01:23:58;40.64;36.45;43.04;;
60031;Laerm;45901;47.600;9.890;2022-07-29T01:26:42;40.67;36.20;43.49;;
60031;Laerm;45901;47.600;9.890;2022-07-29T01:29:18;43.04;33.90;62.28;;
60031;Laerm;45901;47.600;9.890;2022-07-29T01:32:10;40.57;35.94;43.29;;
60031;Laerm;45901;47.600;9.890;2022-07-29T01:34:44;40.50;36.20;44.31;;
60031;Laerm;45901;47.600;9.890;2022-07-29T01:37:19;40.71;37.12;43.44;;
60031;Laerm;45901;47.600;9.890;2022-07-29T01:39:51;41.11;36.91;46.91;;
60031;Laerm;45901;47.600;9.890;2022-07-29T01:42:26;40.62;36.45;45.91;;
60031;Laerm;45901;47.600;9.890;2022-07-29T01:44:59;43.98;36.69;63.14;;
60031;Laerm;45901;47.600;9.890;2022-07-29T01:47:35;41.08;37.52;43.94;;
60031;Laerm;45901;47.600;9.890;2022-07-29T01:50:08;40.71;35.94;43.34;;
60031;Laerm;45901;47.600;9.890;2022-07-29T01:52:43;40.75;36.20;42.98;;
60031;Laerm;45901;47.600;9.890;2022-07-29T01:55:14;40.76;37.32;48.43;;
60031;Laerm;45901;47.600;9.890;2022-07-29T01:57:45;40.70;36.69;44.62;;
60031;Laerm;45901;47.600;9.890;2022-07-29T02:00:16;47.02;37.32;62.89;;
60031;Laerm;45901;47.600;9.890;2022-07-29T02:02:45;40.81;36.69;43.24;;
60031;Laerm;45901;47.600;9.890;2022-07-29T02:05:18;40.95;37.32;44.76;;
60031;Laerm;45901;47.600;9.890;2022-07-29T02:07:47;40.83;36.91;43.29;;
60031;Laerm;45901;47.600;9.890;2022-07-29T02:10:18;41.41;36.91;50.57;;
60031;Laerm;45901;47.600;9.890;2022-07-29T02:12:47;40.99;37.32;43.72;;
60031;Laerm;45901;47.600;9.890;2022-07-29T02:15:18;42.48;35.94;62.69;;
60031;Laerm;45901;47.600;9.890;2022-07-29T02:17:51;40.74;35.36;42.98;;
60031;Laerm;45901;47.600;9.890;2022-07-29T02:20:20;41.63;37.12;50.66;;
60031;Laerm;45901;47.600;9.890;2022-07-29T02:22:50;40.64;36.45;45.20;;
60031;Laerm;45901;47.600;9.890;2022-07-29T02:25:20;40.72;36.69;42.98;;
60031;Laerm;45901;47.600;9.890;2022-07-29T02:27:49;40.90;37.12;43.49;;
60031;Laerm;45901;47.600;9.890;2022-07-29T02:30:18;43.49;36.91;63.37;;
60031;Laerm;45901;47.600;9.890;2022-07-29T02:32:47;41.05;36.91;47.02;;
60031;Laerm;45901;47.600;9.890;2022-07-29T02:35:16;41.27;36.91;43.81;;
60031;Laerm;45901;47.600;9.890;2022-07-29T02:37:44;41.32;37.52;44.19;;
60031;Laerm;45901;47.600;9.890;2022-07-29T02:40:34;41.41;37.88;44.94;;
60031;Laerm;45901;47.600;9.890;2022-07-29T02:43:02;41.35;37.12;52.17;;
60031;Laerm;45901;47.600;9.890;2022-07-29T02:45:33;44.05;38.67;62.27;;
60031;Laerm;45901;47.600;9.890;2022-07-29T02:48:06;41.51;36.91;44.90;;
60031;Laerm;45901;47.600;9.890;2022-07-29T02:50:38;41.61;38.60;44.39;;
60031;Laerm;45901;47.600;9.890;2022-07-29T02:53:12;42.24;38.21;52.94;;
60031;Laerm;45901;47.600;9.890;2022-07-29T02:55:46;41.80;38.47;46.43;;
60031;Laerm;45901;47.600;9.890;2022-07-29T02:58:21;41.62;37.52;48.76;;
60031;Laerm;45901;47.600;9.890;2022-07-29T03:00:56;47.96;38.21;64.14;;
60031;Laerm;45901;47.600;9.890;2022-07-29T03:03:30;42.29;37.52;52.09;;
60031;Laerm;45901;47.600;9.890;2022-07-29T03:06:00;41.31;37.70;43.94;;
60031;Laerm;45901;47.600;9.890;2022-07-29T03:08:28;41.56;37.12;47.00;;
60031;Laerm;45901;47.600;9.890;2022-07-29T03:10:57;41.78;36.69;49.24;;
60031;Laerm;45901;47.600;9.890;2022-07-29T03:13:25;42.96;37.88;56.17;;
60031;Laerm;45901;47.600;9.890;2022-07-29T03:15:53;43.02;38.21;62.61;;
60031;Laerm;45901;47.600;9.890;2022-07-29T03:18:22;42.01;37.70;51.89;;
60031;Laerm;45901;47.600;9.890;2022-07-29T03:20:49;42.34;37.52;53.13;;
60031;Laerm;45901;47.600;9.890;2022-07-29T03:23:19;41.28;37.70;43.19;;
60031;Laerm;45901;47.600;9.890;2022-07-29T03:25:48;41.75;37.88;44.23;;
60031;Laerm;45901;47.600;9.890;2022-07-29T03:28:16;42.39;38.95;47.04;;
60031;Laerm;45901;47.600;9.890;2022-07-29T03:30:43;43.59;37.88;61.17;;
60031;Laerm;45901;47.600;9.890;2022-07-29T03:33:10;42.20;38.21;45.04;;
60031;Laerm;45901;47.600;9.890;2022-07-29T03:35:39;42.59;38.37;52.48;;
60031;Laerm;45901;47.600;9.890;2022-07-29T03:38:06;42.67;39.21;50.03;;
60031;Laerm;45901;47.600;9.890;2022-07-29T03:40:38;43.49;39.46;52.14;;
60031;Laerm;45901;47.600;9.890;2022-07-29T03:43:08;43.31;39.81;57.35;;
60031;Laerm;45901;47.600;9.890;2022-07-29T03:45:37;45.44;39.21;62.97;;
60031;Laerm;45901;47.600;9.890;2022-07-29T03:48:10;44.90;40.03;59.29;;
60031;Laerm;45901;47.600;9.890;2022-07-29T03:50:41;42.74;39.70;50.07;;
60031;Laerm;45901;47.600;9.890;2022-07-29T03:53:08;44.75;40.33;60.51;;
60031;Laerm;45901;47.600;9.890;2022-07-29T03:55:43;42.32;39.21;45.01;;
60031;Laerm;45901;47.600;9.890;2022-07-29T03:58:13;42.64;39.08;56.28;;
60031;Laerm;45901;47.600;9.890;2022-07-29T04:00:42;48.16;40.03;63.07;;
60031;Laerm;45901;47.600;9.890;2022-07-29T04:03:10;45.66;38.67;59.38;;
60031;Laerm;45901;47.600;9.890;2022-07-29T04:05:37;46.96;38.37;60.13;;
60031;Laerm;45901;47.600;9.890;2022-07-29T04:08:06;43.35;39.58;57.18;;
60031;Laerm;45901;47.600;9.890;2022-07-29T04:10:33;42.33;38.21;55.06;;
60031;Laerm;45901;47.600;9.890;2022-07-29T04:13:00;42.33;39.70;50.05;;
60031;Laerm;45901;47.600;9.890;2022-07-29T04:15:27;43.79;39.92;61.40;;
60031;Laerm;45901;47.600;9.890;2022-07-29T04:17:57;45.17;40.33;65.99;;
60031;Laerm;45901;47.600;9.890;2022-07-29T04:20:24;44.33;40.23;55.48;;
60031;Laerm;45901;47.600;9.890;2022-07-29T04:22:52;46.44;40.23;60.51;;
60031;Laerm;45901;47.600;9.890;2022-07-29T04:25:20;42.92;39.70;53.15;;
60031;Laerm;45901;47.600;9.890;2022-07-29T04:27:47;44.83;40.80;56.11;;
60031;Laerm;45901;47.600;9.890;2022-07-29T04:30:27;44.51;39.21;63.57;;
60031;Laerm;45901;47.600;9.890;2022-07-29T04:32:55;42.30;38.52;51.80;;
60031;Laerm;45901;47.600;9.890;2022-07-29T04:35:22;43.80;39.58;53.66;;
60031;Laerm;45901;47.600;9.890;2022-07-29T04:37:49;44.96;40.43;59.45;;
60031;Laerm;45901;47.600;9.890;2022-07-29T04:40:17;44.34;39.70;57.00;;
60031;Laerm;45901;47.600;9.890;2022-07-29T04:42:45;45.60;40.13;57.88;;
60031;Laerm;45901;47.600;9.890;2022-07-29T04:45:12;44.33;39.92;62.12;;
60031;Laerm;45901;47.600;9.890;2022-07-29T04:47:40;43.61;39.70;54.69;;
60031;Laerm;45901;47.600;9.890;2022-07-29T04:50:08;42.97;40.33;53.26;;
60031;Laerm;45901;47.600;9.890;2022-07-29T04:52:35;43.70;39.81;54.24;;
60031;Laerm;45901;47.600;9.890;2022-07-29T04:55:05;44.59;39.81;58.32;;
60031;Laerm;45901;47.600;9.890;2022-07-29T04:57:32;43.73;40.53;58.09;;
60031;Laerm;45901;47.600;9.890;2022-07-29T05:00:02;50.32;39.34;66.31;;
60031;Laerm;45901;47.600;9.890;2022-07-29T05:02:29;43.90;40.13;55.14;;
60031;Laerm;45901;47.600;9.890;2022-07-29T05:04:56;46.32;40.71;63.82;;
60031;Laerm;45901;47.600;9.890;2022-07-29T05:07:23;55.59;41.06;70.21;;
60031;Laerm;45901;47.600;9.890;2022-07-29T05:09:50;49.98;43.86;58.72;;
60031;Laerm;45901;47.600;9.890;2022-07-29T05:12:18;48.05;40.71;64.16;;
60031;Laerm;45901;47.600;9.890;2022-07-29T05:14:47;47.84;42.03;63.23;;
60031;Laerm;45901;47.600;9.890;2022-07-29T05:17:15;46.84;40.62;67.00;;
60031;Laerm;45901;47.600;9.890;2022-07-29T05:19:44;45.87;40.62;64.86;;
60031;Laerm;45901;47.600;9.890;2022-07-29T05:22:12;48.39;42.03;62.88;;
60031;Laerm;45901;47.600;9.890;2022-07-29T05:24:39;48.56;43.14;57.88;;
60031;Laerm;45901;47.600;9.890;2022-07-29T05:27:06;55.03;45.48;62.55;;
60031;Laerm;45901;47.600;9.890;2022-07-29T05:29:33;54.33;42.65;65.32;;
60031;Laerm;45901;47.600;9.890;2022-07-29T05:32:04;47.89;41.30;60.22;;
60031;Laerm;45901;47.600;9.890;2022-07-29T05:34:33;50.18;41.22;73.84;;
60031;Laerm;45901;47.600;9.890;2022-07-29T05:37:00;49.88;41.53;61.74;;
60031;Laerm;45901;47.600;9.890;2022-07-29T05:39:27;44.38;41.53;55.47;;
60031;Laerm;45901;47.600;9.890;2022-07-29T05:41:54;47.54;42.03;61.91;;
60031;Laerm;45901;47.600;9.890;2022-07-29T05:44:22;49.48;42.35;64.17;;
60031;Laerm;45901;47.600;9.890;2022-07-29T05:46:49;46.28;40.89;57.49;;
60031;Laerm;45901;47.600;9.890;2022-07-29T05:49:16;46.10;41.38;60.53;;
60031;Laerm;45901;47.600;9.890;2022-07-29T05:51:45;50.29;41.46;75.13;;
60031;Laerm;45901;47.600;9.890;2022-07-29T05:54:16;49.30;41.61;66.09;;
60031;Laerm;45901;47.600;9.890;2022-07-29T05:56:43;45.52;42.03;56.84;;
60031;Laerm;45901;47.600;9.890;2022-07-29T05:59:10;51.77;42.22;63.42;;
60031;Laerm;45901;47.600;9.890;2022-07-29T06:01:37;46.38;40.71;63.73;;
60031;Laerm;45901;47.600;9.890;2022-07-29T06:04:05;48.91;41.14;64.14;;
60031;Laerm;45901;47.600;9.890;2022-07-29T06:06:33;48.83;41.38;61.51;;
60031;Laerm;45901;47.600;9.890;2022-07-29T06:09:02;49.53;40.89;65.82;;
60031;Laerm;45901;47.600;9.890;2022-07-29T06:11:32;46.28;40.71;59.19;;
60031;Laerm;45901;47.600;9.890;2022-07-29T06:14:00;46.83;40.43;63.86;;
60031;Laerm;45901;47.600;9.890;2022-07-29T06:16:28;43.38;39.92;52.40;;
60031;Laerm;45901;47.600;9.890;2022-07-29T06:18:56;47.11;40.36;61.59;;
60031;Laerm;45901;47.600;9.890;2022-07-29T06:21:23;49.36;40.80;58.66;;
60031;Laerm;45901;47.600;9.890;2022-07-29T06:23:50;52.23;43.99;60.83;;
60031;Laerm;45901;47.600;9.890;2022-07-29T06:26:18;45.90;42.22;58.30;;
60031;Laerm;45901;47.600;9.890;2022-07-29T06:28:45;45.33;41.30;60.99;;
60031;Laerm;45901;47.600;9.890;2022-07-29T06:31:13;44.40;40.71;60.56;;
60031;Laerm;45901;47.600;9.890;2022-07-29T06:33:51;44.49;40.88;54.45;;
60031;Laerm;45901;47.600;9.890;2022-07-29T06:36:24;49.66;40.89;61.65;;
60031;Laerm;45901;47.600;9.890;2022-07-29T06:39:19;51.68;43.63;69.10;;
60031;Laerm;45901;47.600;9.890;2022-07-29T06:55:03;46.56;41.46;62.16;;
60031;Laerm;45901;47.600;9.890;2022-07-29T06:57:48;49.86;41.14;68.78;;
60031;Laerm;45901;47.600;9.890;2022-07-29T07:00:16;52.30;42.16;65.10;;
60031;Laerm;45901;47.600;9.890;2022-07-29T07:02:43;52.34;44.43;61.27;;
60031;Laerm;45901;47.600;9.890;2022-07-29T07:05:10;51.24;42.59;62.45;;
60031;Laerm;45901;47.600;9.890;2022-07-29T07:07:38;47.59;41.06;59.37;;
60031;Laerm;45901;47.600;9.890;2022-07-29T07:10:07;48.34;40.62;62.76;;
60031;Laerm;45901;47.600;9.890;2022-07-29T07:12:35;51.91;42.82;59.41;;
60031;Laerm;45901;47.600;9.890;2022-07-29T07:15:03;52.92;45.42;62.03;;
60031;Laerm;45901;47.600;9.890;2022-07-29T07:17:30;51.30;44.65;66.59;;
60031;Laerm;45901;47.600;9.890;2022-07-29T07:19:58;52.57;43.72;64.27;;
60031;Laerm;45901;47.600;9.890;2022-07-29T07:22:25;48.53;42.29;58.13;;
60031;Laerm;45901;47.600;9.890;2022-07-29T07:24:52;49.50;41.82;60.10;;
60031;Laerm;45901;47.600;9.890;2022-07-29T07:27:21;45.82;40.03;59.78;;
60031;Laerm;45901;47.600;9.890;2022-07-29T07:29:48;44.56;40.62;61.62;;
60031;Laerm;45901;47.600;9.890;2022-07-29T07:32:15;43.91;40.80;53.57;;
60031;Laerm;45901;47.600;9.890;2022-07-29T07:34:43;43.60;39.34;54.22;;
60031;Laerm;45901;47.600;9.890;2022-07-29T07:37:13;43.93;39.70;54.66;;
60031;Laerm;45901;47.600;9.890;2022-07-29T07:39:43;45.47;41.06;56.62;;
60031;Laerm;45901;47.600;9.890;2022-07-29T07:42:10;46.55;40.98;66.38;;
60031;Laerm;45901;47.600;9.890;2022-07-29T07:44:43;45.88;40.33;62.54;;
60031;Laerm;45901;47.600;9.890;2022-07-29T07:47:11;43.88;40.45;55.52;;
60031;Laerm;45901;47.600;9.890;2022-07-29T07:49:42;45.23;40.80;60.46;;
60031;Laerm;45901;47.600;9.890;2022-07-29T07:52:17;44.55;40.13;58.12;;
60031;Laerm;45901;47.600;9.890;2022-07-29T07:54:58;44.28;39.70;56.87;;
60031;Laerm;45901;47.600;9.890;2022-07-29T07:58:19;48.30;40.33;60.71;;
60031;Laerm;45901;47.600;9.890;2022-07-29T08:01:05;49.42;40.89;64.52;;
60031;Laerm;45901;47.600;9.890;2022-07-29T08:03:37;43.54;38.95;50.68;;
60031;Laerm;45901;47.600;9.890;2022-07-29T08:06:05;46.11;38.67;59.00;;
60031;Laerm;45901;47.600;9.890;2022-07-29T08:08:32;43.62;38.67;54.14;;
60031;Laerm;45901;47.600;9.890;2022-07-29T08:10:59;42.89;39.34;51.94;;
60031;Laerm;45901;47.600;9.890;2022-07-29T08:13:27;42.52;39.34;50.12;;
60031;Laerm;45901;47.600;9.890;2022-07-29T08:15:56;46.27;38.37;60.74;;
60031;Laerm;45901;47.600;9.890;2022-07-29T08:18:30;45.41;40.23;62.84;;
60031;Laerm;45901;47.600;9.890;2022-07-29T08:21:00;43.62;39.70;55.33;;
60031;Laerm;45901;47.600;9.890;2022-07-29T08:23:32;49.88;41.94;71.37;;
60031;Laerm;45901;47.600;9.890;2022-07-29T08:26:04;45.65;41.53;62.81;;
60031;Laerm;45901;47.600;9.890;2022-07-29T08:28:36;44.64;40.13;58.08;;
60031;Laerm;45901;47.600;9.890;2022-07-29T08:31:04;45.96;40.89;61.13;;
60031;Laerm;45901;47.600;9.890;2022-07-29T08:33:32;43.72;40.33;54.82;;
60031;Laerm;45901;47.600;9.890;2022-07-29T08:36:02;44.04;40.62;62.20;;
60031;Laerm;45901;47.600;9.890;2022-07-29T08:38:29;45.06;41.61;63.04;;
60031;Laerm;45901;47.600;9.890;2022-07-29T08:40:56;45.96;41.22;60.24;;
60031;Laerm;45901;47.600;9.890;2022-07-29T08:43:23;47.09;40.53;64.86;;
60031;Laerm;45901;47.600;9.890;2022-07-29T08:45:51;49.38;42.35;63.15;;
60031;Laerm;45901;47.600;9.890;2022-07-29T08:48:20;47.40;40.62;59.68;;
60031;Laerm;45901;47.600;9.890;2022-07-29T08:50:53;53.38;41.61;84.63;;
60031;Laerm;45901;47.600;9.890;2022-07-29T08:53:21;64.89;45.30;79.46;;
60031;Laerm;45901;47.600;9.890;2022-07-29T08:55:52;49.91;41.22;63.76;;
60031;Laerm;45901;47.600;9.890;2022-07-29T08:58:20;47.40;41.22;63.43;;
60031;Laerm;45901;47.600;9.890;2022-07-29T09:00:51;51.97;43.86;64.51;;
60031;Laerm;45901;47.600;9.890;2022-07-29T09:03:19;50.12;42.03;73.36;;
60031;Laerm;45901;47.600;9.890;2022-07-29T09:05:49;47.95;41.94;63.92;;
60031;Laerm;45901;47.600;9.890;2022-07-29T09:08:17;45.68;40.79;58.76;;
60031;Laerm;45901;47.600;9.890;2022-07-29T09:10:45;47.09;39.21;63.30;;
60031;Laerm;45901;47.600;9.890;2022-07-29T09:13:12;48.44;41.22;61.60;;
60031;Laerm;45901;47.600;9.890;2022-07-29T09:15:39;51.40;44.07;73.04;;
60031;Laerm;45901;47.600;9.890;2022-07-29T09:18:06;51.93;43.14;65.21;;
60031;Laerm;45901;47.600;9.890;2022-07-29T09:20:33;51.54;42.47;70.70;;
60031;Laerm;45901;47.600;9.890;2022-07-29T09:23:16;50.05;42.53;72.60;;
60031;Laerm;45901;47.600;9.890;2022-07-29T09:25:43;50.88;42.98;69.04;;
60031;Laerm;45901;47.600;9.890;2022-07-29T09:28:13;50.86;41.75;72.48;;
60031;Laerm;45901;47.600;9.890;2022-07-29T09:30:51;48.27;42.35;69.88;;
60031;Laerm;45901;47.600;9.890;2022-07-29T09:33:35;50.64;42.88;67.34;;
60031;Laerm;45901;47.600;9.890;2022-07-29T09:36:07;53.09;44.65;64.66;;
60031;Laerm;45901;47.600;9.890;2022-07-29T09:38:36;49.69;41.38;68.82;;
60031;Laerm;45901;47.600;9.890;2022-07-29T09:41:05;49.59;41.82;69.80;;
60031;Laerm;45901;47.600;9.890;2022-07-29T09:43:33;50.12;42.47;71.45;;
60031;Laerm;45901;47.600;9.890;2022-07-29T09:46:10;48.18;40.23;69.54;;
60031;Laerm;45901;47.600;9.890;2022-07-29T09:48:40;51.22;42.65;76.85;;
60031;Laerm;45901;47.600;9.890;2022-07-29T09:51:17;51.86;41.03;70.21;;
60031;Laerm;45901;47.600;9.890;2022-07-29T09:53:44;47.24;40.89;67.60;;
60031;Laerm;45901;47.600;9.890;2022-07-29T09:56:11;47.32;41.53;67.38;;
60031;Laerm;45901;47.600;9.890;2022-07-29T09:58:39;47.60;40.80;70.18;;
60031;Laerm;45901;47.600;9.890;2022-07-29T10:01:07;50.55;41.61;67.65;;
60031;Laerm;45901;47.600;9.890;2022-07-29T10:03:52;50.19;41.75;67.37;;
60031;Laerm;45901;47.600;9.890;2022-07-29T10:06:19;48.88;40.43;61.81;;
60031;Laerm;45901;47.600;9.890;2022-07-29T10:08:46;49.55;41.06;59.65;;
60031;Laerm;45901;47.600;9.890;2022-07-29T10:11:17;47.38;41.89;68.55;;
60031;Laerm;45901;47.600;9.890;2022-07-29T10:13:46;46.29;41.75;61.96;;
60031;Laerm;45901;47.600;9.890;2022-07-29T10:16:15;49.50;42.03;68.51;;
60031;Laerm;45901;47.600;9.890;2022-07-29T10:18:44;48.35;40.89;64.33;;
60031;Laerm;45901;47.600;9.890;2022-07-29T10:21:14;46.34;38.81;60.63;;
60031;Laerm;45901;47.600;9.890;2022-07-29T10:23:41;45.94;40.13;58.38;;
60031;Laerm;45901;47.600;9.890;2022-07-29T10:26:10;44.42;40.23;57.27;;
60031;Laerm;45901;47.600;9.890;2022-07-29T10:28:37;47.14;39.70;58.10;;
60031;Laerm;45901;47.600;9.890;2022-07-29T10:31:06;43.82;39.08;65.23;;
60031;Laerm;45901;47.600;9.890;2022-07-29T10:33:51;44.50;40.03;57.73;;
60031;Laerm;45901;47.600;9.890;2022-07-29T10:36:43;43.12;39.34;54.84;;
60031;Laerm;45901;47.600;9.890;2022-07-29T10:39:27;43.72;39.08;54.98;;
60031;Laerm;45901;47.600;9.890;2022-07-29T10:42:11;43.78;38.52;57.58;;
60031;Laerm;45901;47.600;9.890;2022-07-29T10:44:43;45.71;38.81;61.88;;
60031;Laerm;45901;47.600;9.890;2022-07-29T10:47:21;43.44;38.67;55.06;;
60031;Laerm;45901;47.600;9.890;2022-07-29T10:49:57;45.11;39.46;57.22;;
60031;Laerm;45901;47.600;9.890;2022-07-29T10:52:53;44.99;39.21;57.92;;
60031;Laerm;45901;47.600;9.890;2022-07-29T10:55:33;44.40;38.67;60.67;;
60031;Laerm;45901;47.600;9.890;2022-07-29T10:58:13;45.36;38.81;65.79;;
60031;Laerm;45901;47.600;9.890;2022-07-29T11:00:40;48.58;39.08;66.66;;
60031;Laerm;45901;47.600;9.890;2022-07-29T11:03:07;45.02;38.67;59.12;;
60031;Laerm;45901;47.600;9.890;2022-07-29T11:05:54;47.64;38.37;72.29;;
60031;Laerm;45901;47.600;9.890;2022-07-29T11:08:24;44.48;39.46;57.64;;
60031;Laerm;45901;47.600;9.890;2022-07-29T11:13:49;44.03;37.88;62.92;;
60031;Laerm;45901;47.600;9.890;2022-07-29T11:16:21;45.42;37.32;67.38;;
60031;Laerm;45901;47.600;9.890;2022-07-29T11:19:22;49.78;39.46;77.29;;
60031;Laerm;45901;47.600;9.890;2022-07-29T11:21:50;42.73;38.95;58.76;;
60031;Laerm;45901;47.600;9.890;2022-07-29T11:24:24;43.58;39.08;54.27;;
60031;Laerm;45901;47.600;9.890;2022-07-29T11:27:15;44.01;38.95;56.37;;
60031;Laerm;45901;47.600;9.890;2022-07-29T11:29:53;44.74;38.21;62.77;;
60031;Laerm;45901;47.600;9.890;2022-07-29T11:32:22;44.18;38.95;57.54;;
60031;Laerm;45901;47.600;9.890;2022-07-29T11:35:12;42.49;38.21;56.73;;
60031;Laerm;45901;47.600;9.890;2022-07-29T11:37:40;45.34;38.81;63.80;;
60031;Laerm;45901;47.600;9.890;2022-07-29T11:40:16;42.65;38.05;52.90;;
60031;Laerm;45901;47.600;9.890;2022-07-29T11:42:46;43.04;36.20;56.29;;
60031;Laerm;45901;47.600;9.890;2022-07-29T11:45:25;47.42;39.34;63.64;;
60031;Laerm;45901;47.600;9.890;2022-07-29T11:47:59;44.90;39.78;57.37;;
60031;Laerm;45901;47.600;9.890;2022-07-29T11:50:35;47.30;40.89;62.86;;
60031;Laerm;45901;47.600;9.890;2022-07-29T11:53:10;47.30;40.13;57.56;;
60031;Laerm;45901;47.600;9.890;2022-07-29T11:55:41;45.09;41.03;57.60;;
60031;Laerm;45901;47.600;9.890;2022-07-29T11:58:08;43.61;39.58;54.61;;
60031;Laerm;45901;47.600;9.890;2022-07-29T12:00:37;48.02;39.34;61.59;;
60031;Laerm;45901;47.600;9.890;2022-07-29T12:03:07;50.12;40.13;70.69;;
60031;Laerm;45901;47.600;9.890;2022-07-29T12:05:38;48.29;40.62;63.03;;
60031;Laerm;45901;47.600;9.890;2022-07-29T12:08:15;43.58;39.34;56.16;;
60031;Laerm;45901;47.600;9.890;2022-07-29T12:10:48;44.41;39.70;54.35;;
60031;Laerm;45901;47.600;9.890;2022-07-29T12:13:18;48.37;41.30;60.41;;
60031;Laerm;45901;47.600;9.890;2022-07-29T12:15:52;49.57;41.61;61.09;;
60031;Laerm;45901;47.600;9.890;2022-07-29T12:18:20;50.57;42.53;58.03;;
60031;Laerm;45901;47.600;9.890;2022-07-29T12:20:49;47.96;41.22;63.76;;
60031;Laerm;45901;47.600;9.890;2022-07-29T12:23:22;48.54;41.75;63.64;;
60031;Laerm;45901;47.600;9.890;2022-07-29T12:25:51;45.90;38.21;59.63;;
60031;Laerm;45901;47.600;9.890;2022-07-29T12:28:19;44.03;38.67;51.76;;
60031;Laerm;45901;47.600;9.890;2022-07-29T12:30:49;46.55;39.34;61.61;;
60031;Laerm;45901;47.600;9.890;2022-07-29T12:33:20;44.47;39.34;55.49;;
60031;Laerm;45901;47.600;9.890;2022-07-29T12:35:51;49.94;40.80;59.56;;
60031;Laerm;45901;47.600;9.890;2022-07-29T12:38:20;50.64;38.67;69.30;;
60031;Laerm;45901;47.600;9.890;2022-07-29T12:40:48;44.40;39.68;58.95;;
60031;Laerm;45901;47.600;9.890;2022-07-29T12:43:20;44.51;38.95;55.05;;
60031;Laerm;45901;47.600;9.890;2022-07-29T12:45:50;47.11;41.22;59.39;;
60031;Laerm;45901;47.600;9.890;2022-07-29T12:48:18;48.20;42.16;65.72;;
60031;Laerm;45901;47.600;9.890;2022-07-29T12:51:01;45.38;37.32;72.02;;
60031;Laerm;45901;47.600;9.890;2022-07-29T12:53:29;45.89;40.33;61.68;;
60031;Laerm;45901;47.600;9.890;2022-07-29T12:56:00;48.13;40.23;59.97;;
60031;Laerm;45901;47.600;9.890;2022-07-29T12:58:35;46.58;40.18;64.42;;
60031;Laerm;45901;47.600;9.890;2022-07-29T13:01:08;48.70;41.06;62.02;;
60031;Laerm;45901;47.600;9.890;2022-07-29T13:03:50;44.90;40.33;55.33;;
60031;Laerm;45901;47.600;9.890;2022-07-29T13:06:33;46.34;40.71;64.59;;
60031;Laerm;45901;47.600;9.890;2022-07-29T13:09:04;45.16;40.33;57.62;;
60031;Laerm;45901;47.600;9.890;2022-07-29T13:15:14;50.71;40.80;66.60;;
60031;Laerm;45901;47.600;9.890;2022-07-29T13:17:50;44.49;40.03;54.57;;
60031;Laerm;45901;47.600;9.890;2022-07-29T13:20:28;46.66;37.70;62.70;;
60031;Laerm;45901;47.600;9.890;2022-07-29T13:22:57;43.99;39.34;53.00;;
60031;Laerm;45901;47.600;9.890;2022-07-29T13:25:25;43.97;39.34;55.50;;
60031;Laerm;45901;47.600;9.890;2022-07-29T13:27:53;43.84;37.88;54.92;;
60031;Laerm;45901;47.600;9.890;2022-07-29T13:30:23;44.24;38.95;61.95;;
60031;Laerm;45901;47.600;9.890;2022-07-29T13:32:51;44.59;40.03;61.25;;
60031;Laerm;45901;47.600;9.890;2022-07-29T13:35:19;43.90;38.95;55.28;;
60031;Laerm;45901;47.600;9.890;2022-07-29T13:37:46;42.76;38.52;52.09;;
60031;Laerm;45901;47.600;9.890;2022-07-29T13:40:14;42.36;38.05;51.53;;
60031;Laerm;45901;47.600;9.890;2022-07-29T13:42:42;44.50;37.52;56.16;;
60031;Laerm;45901;47.600;9.890;2022-07-29T13:45:10;48.01;39.08;66.37;;
60031;Laerm;45901;47.600;9.890;2022-07-29T13:48:11;46.07;37.88;62.17;;
60031;Laerm;45901;47.600;9.890;2022-07-29T13:54:50;48.74;38.05;67.06;;
60031;Laerm;45901;47.600;9.890;2022-07-29T13:57:17;44.90;39.58;57.46;;
60031;Laerm;45901;47.600;9.890;2022-07-29T13:59:45;48.18;39.21;62.07;;
60031;Laerm;45901;47.600;9.890;2022-07-29T14:02:12;43.98;39.92;51.92;;
60031;Laerm;45901;47.600;9.890;2022-07-29T14:05:20;44.52;38.37;55.05;;
60031;Laerm;45901;47.600;9.890;2022-07-29T14:07:50;44.82;39.70;57.39;;
60031;Laerm;45901;47.600;9.890;2022-07-29T14:10:25;45.51;37.88;61.82;;
60031;Laerm;45901;47.600;9.890;2022-07-29T14:12:52;44.07;40.36;59.36;;
60031;Laerm;45901;47.600;9.890;2022-07-29T14:15:20;43.74;40.13;60.62;;
60031;Laerm;45901;47.600;9.890;2022-07-29T14:17:47;43.36;39.92;53.96;;
60031;Laerm;45901;47.600;9.890;2022-07-29T14:20:27;43.99;38.87;57.67;;
60031;Laerm;45901;47.600;9.890;2022-07-29T14:27:24;45.56;40.43;61.20;;
60031;Laerm;45901;47.600;9.890;2022-07-29T14:30:42;45.43;39.21;63.91;;
60031;Laerm;45901;47.600;9.890;2022-07-29T14:33:47;45.20;40.13;63.50;;
60031;Laerm;45901;47.600;9.890;2022-07-29T14:36:15;45.06;40.33;55.91;;